createdAt,value
2023-04-07T00:00:31.527Z,977.38
2023-04-07T00:01:31.499Z,977.39
2023-04-07T00:02:31.418Z,977.40
2023-04-07T00:03:52.339Z,977.40
2023-04-07T00:04:31.245Z,977.38
2023-04-07T00:05:31.092Z,977.36
2023-04-07T00:06:31.015Z,977.36
2023-04-07T00:07:30.920Z,977.43
2023-04-07T00:08:30.831Z,977.37
2023-04-07T00:09:51.721Z,977.36
2023-04-07T00:10:30.663Z,977.35
2023-04-07T00:11:30.571Z,977.36
2023-04-07T00:12:30.486Z,977.33
2023-04-07T00:13:30.874Z,977.32
2023-04-07T00:14:30.313Z,977.35
2023-04-07T00:15:51.289Z,977.34
2023-04-07T00:16:30.136Z,977.31
2023-04-07T00:17:30.094Z,977.33
2023-04-07T00:18:29.966Z,977.33
2023-04-07T00:19:29.882Z,977.33
2023-04-07T00:20:29.816Z,977.32
2023-04-07T00:21:50.690Z,977.31
2023-04-07T00:22:29.621Z,977.27
2023-04-07T00:23:29.543Z,977.24
2023-04-07T00:24:34.273Z,977.24
2023-04-07T00:25:29.372Z,977.23
2023-04-07T00:26:29.282Z,977.24
2023-04-07T00:27:50.182Z,977.23
2023-04-07T00:28:29.109Z,977.17
2023-04-07T00:29:29.032Z,977.19
2023-04-07T00:30:28.943Z,977.15
2023-04-07T00:31:28.916Z,977.15
2023-04-07T00:32:28.824Z,977.12
2023-04-07T00:33:49.673Z,977.09
2023-04-07T00:34:28.591Z,977.07
2023-04-07T00:35:28.546Z,977.07
2023-04-07T00:36:28.422Z,977.08
2023-04-07T00:37:28.348Z,977.09
2023-04-07T00:38:28.245Z,977.11
2023-04-07T00:39:49.170Z,977.06
2023-04-07T00:40:28.076Z,977.07
2023-04-07T00:41:27.994Z,977.06
2023-04-07T00:42:27.911Z,977.05
2023-04-07T00:43:27.819Z,977.05
2023-04-07T00:44:27.735Z,977.07
2023-04-07T00:45:48.632Z,977.10
2023-04-07T00:46:27.580Z,977.10
2023-04-07T00:47:27.526Z,977.16
2023-04-07T00:48:27.403Z,977.17
2023-04-07T00:49:27.309Z,977.19
2023-04-07T00:50:27.218Z,977.17
2023-04-07T00:51:48.114Z,977.20
2023-04-07T00:52:27.047Z,977.19
2023-04-07T00:53:26.966Z,977.19
2023-04-07T00:54:26.882Z,977.17
2023-04-07T00:55:26.789Z,977.16
2023-04-07T00:56:26.710Z,977.16
2023-04-07T00:57:47.605Z,977.13
2023-04-07T00:58:26.534Z,977.16
2023-04-07T00:59:26.476Z,977.17
2023-04-07T01:00:26.353Z,977.09
2023-04-07T01:01:26.400Z,977.08
2023-04-07T01:02:26.360Z,977.07
2023-04-07T01:03:47.431Z,976.98
2023-04-07T01:04:26.113Z,977.01
2023-04-07T01:05:25.930Z,976.97
2023-04-07T01:06:25.835Z,976.97
2023-04-07T01:07:25.752Z,976.99
2023-04-07T01:08:25.666Z,976.97
2023-04-07T01:09:46.570Z,976.97
2023-04-07T01:10:25.496Z,976.94
2023-04-07T01:11:25.421Z,976.92
2023-04-07T01:12:25.332Z,976.90
2023-04-07T01:13:25.242Z,976.87
2023-04-07T01:14:25.168Z,976.89
2023-04-07T01:15:46.071Z,976.86
2023-04-07T01:16:25.022Z,976.84
2023-04-07T01:17:24.924Z,976.81
2023-04-07T01:18:24.806Z,976.81
2023-04-07T01:19:24.721Z,976.86
2023-04-07T01:20:24.637Z,976.87
2023-04-07T01:21:45.527Z,976.87
2023-04-07T01:22:24.464Z,976.90
2023-04-07T01:23:24.377Z,976.89
2023-04-07T01:24:24.287Z,976.91
2023-04-07T01:25:24.204Z,976.95
2023-04-07T01:26:24.118Z,976.95
2023-04-07T01:27:45.005Z,976.92
2023-04-07T01:28:23.938Z,976.92
2023-04-07T01:29:23.862Z,976.90
2023-04-07T01:30:23.769Z,976.87
2023-04-07T01:31:23.725Z,976.89
2023-04-07T01:32:23.617Z,976.89
2023-04-07T01:33:44.513Z,976.86
2023-04-07T01:34:23.429Z,976.86
2023-04-07T01:35:23.345Z,976.88
2023-04-07T01:36:23.250Z,976.90
2023-04-07T01:37:23.277Z,976.86
2023-04-07T01:38:23.078Z,976.88
2023-04-07T01:39:43.988Z,976.85
2023-04-07T01:40:22.915Z,976.81
2023-04-07T01:41:22.833Z,976.83
2023-04-07T01:42:22.742Z,976.82
2023-04-07T01:43:22.668Z,976.83
2023-04-07T01:44:22.566Z,976.77
2023-04-07T01:45:43.478Z,976.77
2023-04-07T01:46:22.394Z,976.73
2023-04-07T01:47:22.444Z,976.78
2023-04-07T01:48:22.220Z,976.74
2023-04-07T01:49:22.144Z,976.71
2023-04-07T01:50:22.081Z,976.68
2023-04-07T01:51:42.950Z,976.67
2023-04-07T01:52:21.878Z,976.68
2023-04-07T01:53:21.814Z,976.69
2023-04-07T01:54:21.724Z,976.66
2023-04-07T01:55:21.637Z,976.65
2023-04-07T01:56:21.577Z,976.67
2023-04-07T01:57:42.438Z,976.64
2023-04-07T01:58:21.360Z,976.70
2023-04-07T01:59:21.275Z,976.60
2023-04-07T02:00:21.201Z,976.61
2023-04-07T02:01:21.136Z,976.57
2023-04-07T02:02:21.090Z,976.55
2023-04-07T02:03:41.987Z,976.53
2023-04-07T02:04:20.847Z,976.55
2023-04-07T02:05:20.775Z,976.56
2023-04-07T02:06:20.678Z,976.52
2023-04-07T02:07:20.588Z,976.51
2023-04-07T02:08:20.498Z,976.50
2023-04-07T02:09:41.419Z,976.50
2023-04-07T02:10:20.329Z,976.51
2023-04-07T02:11:20.248Z,976.50
2023-04-07T02:12:20.155Z,976.50
2023-04-07T02:13:20.091Z,976.51
2023-04-07T02:14:19.984Z,976.51
2023-04-07T02:15:40.883Z,976.52
2023-04-07T02:16:19.837Z,976.47
2023-04-07T02:17:19.729Z,976.50
2023-04-07T02:18:19.639Z,976.49
2023-04-07T02:19:19.556Z,976.45
2023-04-07T02:20:19.468Z,976.46
2023-04-07T02:21:40.356Z,976.46
2023-04-07T02:22:19.291Z,976.45
2023-04-07T02:23:19.208Z,976.45
2023-04-07T02:24:19.117Z,976.43
2023-04-07T02:25:19.036Z,976.40
2023-04-07T02:26:18.955Z,976.41
2023-04-07T02:27:39.840Z,976.45
2023-04-07T02:28:18.772Z,976.47
2023-04-07T02:29:18.699Z,976.46
2023-04-07T02:30:18.612Z,976.50
2023-04-07T02:31:18.600Z,976.42
2023-04-07T02:32:18.427Z,976.44
2023-04-07T02:33:39.324Z,976.44
2023-04-07T02:34:18.261Z,976.41
2023-04-07T02:35:18.176Z,976.45
2023-04-07T02:36:18.095Z,976.44
2023-04-07T02:37:18.000Z,976.41
2023-04-07T02:38:17.919Z,976.41
2023-04-07T02:39:38.833Z,976.45
2023-04-07T02:40:17.754Z,976.43
2023-04-07T02:41:17.654Z,976.42
2023-04-07T02:42:17.596Z,976.43
2023-04-07T02:43:17.480Z,976.43
2023-04-07T02:44:17.402Z,976.42
2023-04-07T02:45:38.316Z,976.42
2023-04-07T02:46:17.245Z,976.39
2023-04-07T02:47:17.139Z,976.41
2023-04-07T02:48:17.059Z,976.39
2023-04-07T02:49:16.957Z,976.39
2023-04-07T02:50:16.885Z,976.39
2023-04-07T02:51:37.771Z,976.40
2023-04-07T02:52:16.705Z,976.44
2023-04-07T02:53:16.618Z,976.46
2023-04-07T02:54:16.558Z,976.43
2023-04-07T02:55:16.445Z,976.43
2023-04-07T02:56:16.358Z,976.42
2023-04-07T02:57:37.260Z,976.41
2023-04-07T02:58:16.188Z,976.43
2023-04-07T02:59:16.110Z,976.43
2023-04-07T03:00:16.016Z,976.41
2023-04-07T03:01:15.951Z,976.42
2023-04-07T03:02:15.934Z,976.40
2023-04-07T03:03:36.862Z,976.44
2023-04-07T03:04:15.808Z,976.46
2023-04-07T03:05:15.589Z,976.44
2023-04-07T03:06:15.496Z,976.41
2023-04-07T03:07:15.424Z,976.41
2023-04-07T03:08:15.324Z,976.42
2023-04-07T03:09:36.221Z,976.38
2023-04-07T03:10:15.159Z,976.35
2023-04-07T03:11:15.066Z,976.39
2023-04-07T03:12:14.982Z,976.33
2023-04-07T03:13:14.898Z,976.33
2023-04-07T03:14:14.810Z,976.31
2023-04-07T03:15:35.693Z,976.32
2023-04-07T03:16:14.636Z,976.31
2023-04-07T03:17:14.551Z,976.33
2023-04-07T03:18:14.464Z,976.31
2023-04-07T03:19:14.386Z,976.30
2023-04-07T03:20:14.296Z,976.31
2023-04-07T03:21:35.184Z,976.31
2023-04-07T03:22:14.121Z,976.31
2023-04-07T03:23:14.037Z,976.30
2023-04-07T03:24:13.951Z,976.31
2023-04-07T03:25:13.877Z,976.33
2023-04-07T03:26:13.776Z,976.36
2023-04-07T03:27:34.664Z,976.36
2023-04-07T03:28:13.604Z,976.35
2023-04-07T03:29:13.513Z,976.35
2023-04-07T03:30:13.432Z,976.32
2023-04-07T03:31:13.377Z,976.32
2023-04-07T03:32:13.267Z,976.32
2023-04-07T03:33:34.169Z,976.34
2023-04-07T03:34:13.096Z,976.33
2023-04-07T03:35:13.021Z,976.29
2023-04-07T03:36:12.942Z,976.31
2023-04-07T03:37:12.829Z,976.34
2023-04-07T03:38:12.755Z,976.34
2023-04-07T03:39:33.646Z,976.36
2023-04-07T03:40:12.602Z,976.29
2023-04-07T03:41:12.479Z,976.31
2023-04-07T03:42:12.402Z,976.31
2023-04-07T03:43:12.330Z,976.30
2023-04-07T03:44:12.227Z,976.34
2023-04-07T03:45:33.135Z,976.34
2023-04-07T03:46:12.063Z,976.32
2023-04-07T03:47:11.968Z,976.29
2023-04-07T03:48:11.910Z,976.29
2023-04-07T03:49:11.798Z,976.28
2023-04-07T03:50:11.714Z,976.28
2023-04-07T03:51:32.602Z,976.23
2023-04-07T03:52:11.540Z,976.28
2023-04-07T03:53:11.465Z,976.28
2023-04-07T03:54:11.369Z,976.25
2023-04-07T03:55:11.278Z,976.28
2023-04-07T03:56:11.199Z,976.28
2023-04-07T03:57:32.088Z,976.26
2023-04-07T03:58:11.024Z,976.26
2023-04-07T03:59:10.937Z,976.24
2023-04-07T04:00:10.868Z,976.25
2023-04-07T04:01:10.767Z,976.24
2023-04-07T04:02:10.757Z,976.28
2023-04-07T04:03:31.641Z,976.24
2023-04-07T04:04:10.713Z,976.27
2023-04-07T04:05:10.420Z,976.26
2023-04-07T04:06:10.332Z,976.25
2023-04-07T04:07:10.245Z,976.27
2023-04-07T04:08:10.172Z,976.27
2023-04-07T04:09:31.074Z,976.23
2023-04-07T04:10:09.990Z,976.24
2023-04-07T04:11:09.912Z,976.23
2023-04-07T04:12:09.823Z,976.24
2023-04-07T04:13:09.737Z,976.21
2023-04-07T04:14:09.656Z,976.22
2023-04-07T04:15:30.548Z,976.23
2023-04-07T04:16:09.519Z,976.20
2023-04-07T04:17:09.388Z,976.19
2023-04-07T04:18:09.311Z,976.23
2023-04-07T04:19:09.224Z,976.20
2023-04-07T04:20:09.133Z,976.17
2023-04-07T04:21:30.030Z,976.21
2023-04-07T04:22:08.997Z,976.19
2023-04-07T04:23:08.916Z,976.21
2023-04-07T04:24:08.796Z,976.17
2023-04-07T04:25:08.717Z,976.18
2023-04-07T04:26:08.624Z,976.17
2023-04-07T04:27:29.510Z,976.15
2023-04-07T04:28:08.450Z,976.18
2023-04-07T04:29:08.362Z,976.15
2023-04-07T04:30:08.283Z,976.17
2023-04-07T04:31:08.244Z,976.17
2023-04-07T04:32:08.129Z,976.19
2023-04-07T04:33:28.992Z,976.16
2023-04-07T04:34:07.943Z,976.18
2023-04-07T04:35:07.847Z,976.16
2023-04-07T04:36:07.756Z,976.19
2023-04-07T04:37:07.691Z,976.21
2023-04-07T04:38:07.592Z,976.22
2023-04-07T04:39:28.479Z,976.21
2023-04-07T04:40:07.428Z,976.24
2023-04-07T04:41:07.337Z,976.23
2023-04-07T04:42:07.241Z,976.23
2023-04-07T04:43:07.213Z,976.20
2023-04-07T04:44:07.344Z,976.21
2023-04-07T04:45:27.959Z,976.18
2023-04-07T04:46:06.912Z,976.22
2023-04-07T04:47:06.847Z,976.22
2023-04-07T04:48:06.785Z,976.21
2023-04-07T04:49:06.635Z,976.17
2023-04-07T04:50:06.571Z,976.21
2023-04-07T04:51:27.473Z,976.19
2023-04-07T04:52:06.389Z,976.21
2023-04-07T04:53:06.293Z,976.19
2023-04-07T04:54:06.216Z,976.22
2023-04-07T04:55:06.129Z,976.21
2023-04-07T04:56:06.043Z,976.20
2023-04-07T04:57:26.962Z,976.22
2023-04-07T04:58:05.870Z,976.20
2023-04-07T04:59:05.790Z,976.20
2023-04-07T05:00:05.706Z,976.23
2023-04-07T05:01:05.717Z,976.24
2023-04-07T05:02:05.628Z,976.25
2023-04-07T05:03:26.577Z,976.26
2023-04-07T05:04:05.473Z,976.25
2023-04-07T05:05:05.522Z,976.25
2023-04-07T05:06:05.182Z,976.26
2023-04-07T05:07:05.097Z,976.23
2023-04-07T05:08:05.006Z,976.24
2023-04-07T05:09:25.895Z,976.25
2023-04-07T05:10:04.844Z,976.22
2023-04-07T05:11:04.749Z,976.24
2023-04-07T05:12:04.662Z,976.24
2023-04-07T05:13:04.582Z,976.25
2023-04-07T05:14:04.504Z,976.24
2023-04-07T05:15:25.380Z,976.26
2023-04-07T05:16:04.346Z,976.27
2023-04-07T05:17:04.228Z,976.27
2023-04-07T05:18:04.184Z,976.25
2023-04-07T05:19:04.074Z,976.28
2023-04-07T05:20:03.977Z,976.29
2023-04-07T05:21:24.896Z,976.26
2023-04-07T05:22:03.804Z,976.28
2023-04-07T05:23:03.718Z,976.24
2023-04-07T05:24:03.651Z,976.24
2023-04-07T05:25:03.543Z,976.25
2023-04-07T05:26:03.466Z,976.23
2023-04-07T05:27:24.359Z,976.25
2023-04-07T05:28:03.301Z,976.24
2023-04-07T05:29:03.262Z,976.25
2023-04-07T05:30:03.117Z,976.25
2023-04-07T05:31:03.838Z,976.23
2023-04-07T05:32:03.066Z,976.21
2023-04-07T05:33:23.840Z,976.22
2023-04-07T05:34:02.794Z,976.19
2023-04-07T05:35:02.698Z,976.19
2023-04-07T05:36:02.643Z,976.21
2023-04-07T05:37:02.521Z,976.20
2023-04-07T05:38:02.436Z,976.19
2023-04-07T05:39:23.325Z,976.22
2023-04-07T05:40:02.267Z,976.21
2023-04-07T05:41:02.189Z,976.23
2023-04-07T05:42:02.089Z,976.20
2023-04-07T05:43:02.038Z,976.25
2023-04-07T05:44:01.924Z,976.20
2023-04-07T05:45:22.838Z,976.26
2023-04-07T05:46:01.786Z,976.21
2023-04-07T05:47:01.657Z,976.23
2023-04-07T05:48:01.676Z,976.19
2023-04-07T05:49:16.698Z,976.20
2023-04-07T05:50:01.400Z,976.20
2023-04-07T05:51:22.294Z,976.19
2023-04-07T05:52:01.240Z,976.23
2023-04-07T05:53:01.142Z,976.24
2023-04-07T05:54:01.061Z,976.25
2023-04-07T05:55:00.986Z,976.21
2023-04-07T05:56:00.893Z,976.21
2023-04-07T05:57:21.778Z,976.20
2023-04-07T05:58:00.721Z,976.20
2023-04-07T05:59:00.639Z,976.20
2023-04-07T06:00:00.561Z,976.20
2023-04-07T06:01:00.466Z,976.21
2023-04-07T06:02:00.454Z,976.19
2023-04-07T06:03:21.383Z,976.15
2023-04-07T06:04:00.275Z,976.11
2023-04-07T06:05:00.167Z,976.12
2023-04-07T06:06:00.049Z,976.13
2023-04-07T06:06:59.946Z,976.15
2023-04-07T06:07:59.864Z,976.11
2023-04-07T06:09:20.752Z,976.17
2023-04-07T06:09:59.698Z,976.17
2023-04-07T06:10:59.604Z,976.17
2023-04-07T06:11:59.517Z,976.16
2023-04-07T06:12:59.433Z,976.18
2023-04-07T06:13:59.353Z,976.19
2023-04-07T06:15:20.242Z,976.18
2023-04-07T06:15:59.186Z,976.17
2023-04-07T06:16:59.116Z,976.18
2023-04-07T06:17:59.054Z,976.18
2023-04-07T06:18:58.929Z,976.17
2023-04-07T06:19:58.850Z,976.20
2023-04-07T06:21:19.728Z,976.17
2023-04-07T06:21:58.666Z,976.18
2023-04-07T06:22:58.585Z,976.16
2023-04-07T06:23:58.506Z,976.19
2023-04-07T06:24:58.414Z,976.19
2023-04-07T06:25:58.329Z,976.20
2023-04-07T06:27:19.214Z,976.21
2023-04-07T06:27:58.154Z,976.21
2023-04-07T06:28:58.062Z,976.20
2023-04-07T06:29:58.025Z,976.24
2023-04-07T06:30:59.445Z,976.24
2023-04-07T06:31:57.829Z,976.24
2023-04-07T06:33:18.717Z,976.25
2023-04-07T06:33:57.645Z,976.23
2023-04-07T06:34:57.666Z,976.23
2023-04-07T06:35:57.505Z,976.22
2023-04-07T06:36:58.321Z,976.22
2023-04-07T06:37:57.312Z,976.20
2023-04-07T06:39:18.192Z,976.20
2023-04-07T06:39:57.133Z,976.20
2023-04-07T06:40:57.044Z,976.25
2023-04-07T06:41:56.984Z,976.22
2023-04-07T06:42:56.878Z,976.24
2023-04-07T06:43:56.807Z,976.22
2023-04-07T06:45:17.702Z,976.23
2023-04-07T06:45:56.640Z,976.21
2023-04-07T06:46:56.561Z,976.22
2023-04-07T06:47:56.510Z,976.20
2023-04-07T06:48:56.371Z,976.20
2023-04-07T06:49:56.285Z,976.18
2023-04-07T06:51:17.177Z,976.19
2023-04-07T06:51:56.113Z,976.18
2023-04-07T06:52:56.027Z,976.16
2023-04-07T06:53:55.955Z,976.16
2023-04-07T06:54:55.860Z,976.18
2023-04-07T06:55:55.771Z,976.22
2023-04-07T06:57:16.676Z,976.23
2023-04-07T06:57:55.604Z,976.21
2023-04-07T06:58:55.524Z,976.21
2023-04-07T06:59:55.435Z,976.21
2023-04-07T07:00:55.356Z,976.17
2023-04-07T07:01:55.344Z,976.14
2023-04-07T07:03:16.403Z,976.17
2023-04-07T07:03:55.229Z,976.16
2023-04-07T07:04:55.022Z,976.13
2023-04-07T07:05:54.934Z,976.12
2023-04-07T07:06:54.845Z,976.11
2023-04-07T07:07:54.759Z,976.12
2023-04-07T07:09:15.658Z,976.12
2023-04-07T07:09:54.590Z,976.13
2023-04-07T07:10:54.520Z,976.11
2023-04-07T07:11:54.435Z,976.14
2023-04-07T07:12:54.349Z,976.09
2023-04-07T07:13:54.261Z,976.13
2023-04-07T07:15:15.154Z,976.15
2023-04-07T07:15:54.213Z,976.13
2023-04-07T07:16:54.017Z,976.16
2023-04-07T07:17:54.191Z,976.17
2023-04-07T07:18:53.843Z,976.13
2023-04-07T07:19:53.748Z,976.17
2023-04-07T07:21:14.648Z,976.15
2023-04-07T07:21:53.582Z,976.13
2023-04-07T07:22:53.503Z,976.12
2023-04-07T07:23:53.441Z,976.13
2023-04-07T07:24:53.332Z,976.14
2023-04-07T07:25:53.257Z,976.13
2023-04-07T07:27:14.149Z,976.16
2023-04-07T07:27:53.088Z,976.12
2023-04-07T07:28:52.996Z,976.15
2023-04-07T07:29:52.911Z,976.16
2023-04-07T07:30:52.848Z,976.12
2023-04-07T07:31:54.432Z,976.13
2023-04-07T07:33:13.662Z,976.12
2023-04-07T07:33:52.573Z,976.11
2023-04-07T07:34:52.491Z,976.14
2023-04-07T07:35:52.461Z,976.12
2023-04-07T07:36:52.337Z,976.10
2023-04-07T07:37:52.245Z,976.10
2023-04-07T07:39:13.151Z,976.11
2023-04-07T07:39:52.080Z,976.10
2023-04-07T07:40:52.016Z,976.08
2023-04-07T07:41:51.959Z,976.07
2023-04-07T07:42:51.846Z,976.08
2023-04-07T07:43:51.740Z,976.08
2023-04-07T07:45:12.640Z,976.08
2023-04-07T07:45:51.575Z,976.09
2023-04-07T07:46:51.538Z,976.04
2023-04-07T07:47:51.434Z,976.09
2023-04-07T07:48:51.496Z,976.11
2023-04-07T07:49:51.243Z,976.06
2023-04-07T07:51:12.141Z,976.09
2023-04-07T07:51:51.101Z,976.11
2023-04-07T07:52:51.007Z,976.12
2023-04-07T07:53:50.917Z,976.10
2023-04-07T07:54:50.827Z,976.11
2023-04-07T07:55:50.743Z,976.18
2023-04-07T07:57:11.644Z,976.14
2023-04-07T07:57:50.578Z,976.18
2023-04-07T07:58:50.505Z,976.17
2023-04-07T07:59:50.413Z,976.15
2023-04-07T08:00:50.581Z,976.19
2023-04-07T08:01:50.370Z,976.17
2023-04-07T08:03:11.382Z,976.18
2023-04-07T08:03:50.351Z,976.20
2023-04-07T08:04:50.141Z,976.19
2023-04-07T08:05:49.998Z,976.18
2023-04-07T08:06:49.911Z,976.15
2023-04-07T08:07:49.828Z,976.15
2023-04-07T08:09:10.649Z,976.15
2023-04-07T08:09:49.588Z,976.19
2023-04-07T08:10:49.509Z,976.16
2023-04-07T08:11:49.422Z,976.21
2023-04-07T08:12:49.351Z,976.16
2023-04-07T08:13:49.697Z,976.18
2023-04-07T08:15:10.160Z,976.16
2023-04-07T08:15:49.101Z,976.17
2023-04-07T08:16:49.012Z,976.13
2023-04-07T08:17:49.006Z,976.18
2023-04-07T08:18:49.133Z,976.20
2023-04-07T08:19:48.762Z,976.16
2023-04-07T08:21:09.691Z,976.20
2023-04-07T08:21:48.652Z,976.17
2023-04-07T08:22:48.519Z,976.19
2023-04-07T08:23:48.665Z,976.18
2023-04-07T08:24:48.361Z,976.16
2023-04-07T08:25:48.264Z,976.16
2023-04-07T08:27:09.173Z,976.14
2023-04-07T08:27:48.216Z,976.18
2023-04-07T08:28:48.026Z,976.20
2023-04-07T08:29:47.951Z,976.21
2023-04-07T08:30:47.941Z,976.24
2023-04-07T08:31:47.796Z,976.20
2023-04-07T08:33:08.747Z,976.23
2023-04-07T08:33:47.952Z,976.19
2023-04-07T08:34:47.542Z,976.20
2023-04-07T08:35:47.616Z,976.21
2023-04-07T08:36:47.367Z,976.17
2023-04-07T08:37:47.285Z,976.22
2023-04-07T08:39:08.177Z,976.22
2023-04-07T08:39:47.119Z,976.20
2023-04-07T08:40:47.035Z,976.20
2023-04-07T08:41:46.962Z,976.24
2023-04-07T08:42:47.361Z,976.23
2023-04-07T08:43:47.080Z,976.27
2023-04-07T08:45:07.753Z,976.23
2023-04-07T08:45:46.626Z,976.24
2023-04-07T08:46:46.577Z,976.27
2023-04-07T08:47:46.511Z,976.26
2023-04-07T08:48:46.380Z,976.26
2023-04-07T08:49:46.300Z,976.23
2023-04-07T08:51:07.200Z,976.17
2023-04-07T08:51:46.136Z,976.18
2023-04-07T08:52:46.058Z,976.19
2023-04-07T08:53:46.323Z,976.21
2023-04-07T08:54:45.903Z,976.18
2023-04-07T08:55:45.852Z,976.18
2023-04-07T08:57:06.719Z,976.23
2023-04-07T08:57:45.645Z,976.18
2023-04-07T08:58:45.574Z,976.19
2023-04-07T08:59:45.478Z,976.18
2023-04-07T09:00:45.437Z,976.19
2023-04-07T09:01:45.531Z,976.19
2023-04-07T09:03:06.349Z,976.21
2023-04-07T09:03:45.239Z,976.20
2023-04-07T09:04:45.076Z,976.25
2023-04-07T09:05:44.993Z,976.22
2023-04-07T09:06:44.922Z,976.25
2023-04-07T09:07:44.837Z,976.22
2023-04-07T09:09:05.736Z,976.23
2023-04-07T09:09:44.671Z,976.23
2023-04-07T09:10:44.590Z,976.22
2023-04-07T09:11:44.517Z,976.25
2023-04-07T09:12:44.459Z,976.26
2023-04-07T09:13:44.350Z,976.26
2023-04-07T09:15:05.245Z,976.24
2023-04-07T09:15:44.187Z,976.25
2023-04-07T09:16:44.140Z,976.26
2023-04-07T09:17:44.040Z,976.25
2023-04-07T09:18:43.947Z,976.28
2023-04-07T09:19:43.855Z,976.28
2023-04-07T09:21:04.760Z,976.21
2023-04-07T09:21:43.690Z,976.20
2023-04-07T09:22:43.694Z,976.25
2023-04-07T09:23:43.535Z,976.21
2023-04-07T09:24:43.450Z,976.23
2023-04-07T09:25:43.372Z,976.20
2023-04-07T09:27:04.275Z,976.22
2023-04-07T09:27:43.255Z,976.19
2023-04-07T09:28:43.136Z,976.21
2023-04-07T09:29:43.046Z,976.18
2023-04-07T09:30:42.972Z,976.21
2023-04-07T09:31:42.895Z,976.22
2023-04-07T09:33:03.871Z,976.22
2023-04-07T09:33:42.730Z,976.24
2023-04-07T09:34:42.642Z,976.21
2023-04-07T09:35:42.587Z,976.24
2023-04-07T09:36:42.491Z,976.25
2023-04-07T09:37:42.407Z,976.24
2023-04-07T09:39:03.301Z,976.25
2023-04-07T09:39:42.235Z,976.21
2023-04-07T09:40:42.170Z,976.25
2023-04-07T09:41:42.141Z,976.24
2023-04-07T09:42:41.997Z,976.22
2023-04-07T09:43:41.929Z,976.23
2023-04-07T09:45:02.821Z,976.21
2023-04-07T09:45:41.864Z,976.18
2023-04-07T09:46:41.712Z,976.16
2023-04-07T09:47:41.620Z,976.22
2023-04-07T09:48:41.508Z,976.18
2023-04-07T09:49:41.433Z,976.18
2023-04-07T09:51:02.330Z,976.19
2023-04-07T09:51:41.262Z,976.15
2023-04-07T09:52:41.194Z,976.15
2023-04-07T09:53:41.102Z,976.16
2023-04-07T09:54:41.024Z,976.13
2023-04-07T09:55:40.953Z,976.12
2023-04-07T09:57:01.853Z,976.15
2023-04-07T09:57:40.786Z,976.12
2023-04-07T09:58:40.707Z,976.13
2023-04-07T09:59:40.619Z,976.15
2023-04-07T10:00:40.544Z,976.14
2023-04-07T10:01:40.523Z,976.15
2023-04-07T10:03:01.435Z,976.12
2023-04-07T10:03:40.356Z,976.10
2023-04-07T10:04:40.316Z,976.14
2023-04-07T10:05:40.137Z,976.13
2023-04-07T10:06:40.058Z,976.14
2023-04-07T10:07:41.444Z,976.15
2023-04-07T10:09:00.890Z,976.14
2023-04-07T10:09:39.825Z,976.14
2023-04-07T10:10:39.736Z,976.15
2023-04-07T10:11:39.661Z,976.16
2023-04-07T10:12:39.576Z,976.17
2023-04-07T10:13:39.495Z,976.16
2023-04-07T10:15:00.401Z,976.20
2023-04-07T10:15:39.335Z,976.18
2023-04-07T10:16:39.287Z,976.19
2023-04-07T10:17:39.193Z,976.11
2023-04-07T10:18:39.100Z,976.12
2023-04-07T10:19:39.015Z,976.13
2023-04-07T10:20:59.922Z,976.14
2023-04-07T10:21:38.855Z,976.14
2023-04-07T10:22:38.777Z,976.13
2023-04-07T10:23:38.689Z,976.16
2023-04-07T10:24:38.618Z,976.19
2023-04-07T10:25:38.533Z,976.16
2023-04-07T10:26:59.439Z,976.16
2023-04-07T10:27:38.374Z,976.18
2023-04-07T10:28:38.304Z,976.14
2023-04-07T10:29:38.213Z,976.14
2023-04-07T10:30:38.134Z,976.13
2023-04-07T10:31:38.078Z,976.15
2023-04-07T10:32:59.082Z,976.13
2023-04-07T10:33:37.896Z,976.13
2023-04-07T10:34:37.817Z,976.10
2023-04-07T10:35:37.769Z,976.09
2023-04-07T10:36:37.662Z,976.10
2023-04-07T10:37:37.678Z,976.08
2023-04-07T10:38:58.479Z,976.14
2023-04-07T10:39:37.417Z,976.15
2023-04-07T10:40:37.356Z,976.15
2023-04-07T10:41:37.264Z,976.13
2023-04-07T10:42:37.171Z,976.15
2023-04-07T10:43:37.102Z,976.17
2023-04-07T10:44:57.994Z,976.15
2023-04-07T10:45:36.945Z,976.13
2023-04-07T10:46:36.879Z,976.12
2023-04-07T10:47:36.810Z,976.16
2023-04-07T10:48:36.707Z,976.14
2023-04-07T10:49:36.622Z,976.15
2023-04-07T10:50:57.522Z,976.16
2023-04-07T10:51:36.466Z,976.14
2023-04-07T10:52:36.379Z,976.19
2023-04-07T10:53:36.304Z,976.16
2023-04-07T10:54:36.224Z,976.16
2023-04-07T10:55:36.142Z,976.15
2023-04-07T10:56:57.050Z,976.19
2023-04-07T10:57:35.989Z,976.15
2023-04-07T10:58:35.905Z,976.13
2023-04-07T10:59:35.829Z,976.14
2023-04-07T11:00:35.747Z,976.15
2023-04-07T11:01:35.686Z,976.14
2023-04-07T11:02:56.702Z,976.14
2023-04-07T11:03:35.574Z,976.14
2023-04-07T11:04:35.487Z,976.22
2023-04-07T11:05:35.357Z,976.18
2023-04-07T11:06:35.276Z,976.19
2023-04-07T11:07:35.197Z,976.19
2023-04-07T11:08:56.100Z,976.18
2023-04-07T11:09:35.036Z,976.17
2023-04-07T11:10:34.959Z,976.13
2023-04-07T11:11:34.899Z,976.11
2023-04-07T11:12:34.804Z,976.12
2023-04-07T11:13:34.721Z,976.16
2023-04-07T11:14:55.618Z,976.11
2023-04-07T11:15:34.579Z,976.05
2023-04-07T11:16:34.523Z,976.12
2023-04-07T11:17:34.417Z,976.10
2023-04-07T11:18:34.322Z,976.10
2023-04-07T11:19:34.247Z,976.08
2023-04-07T11:20:55.154Z,976.13
2023-04-07T11:21:34.091Z,976.15
2023-04-07T11:22:34.010Z,976.08
2023-04-07T11:23:33.939Z,976.09
2023-04-07T11:24:33.863Z,976.11
2023-04-07T11:25:33.789Z,976.08
2023-04-07T11:26:54.670Z,976.04
2023-04-07T11:27:33.616Z,976.03
2023-04-07T11:28:33.548Z,976.06
2023-04-07T11:29:33.455Z,976.01
2023-04-07T11:30:33.379Z,976.00
2023-04-07T11:31:33.356Z,976.01
2023-04-07T11:32:54.228Z,976.01
2023-04-07T11:33:33.143Z,976.02
2023-04-07T11:34:33.064Z,976.01
2023-04-07T11:35:33.003Z,976.01
2023-04-07T11:36:32.903Z,976.00
2023-04-07T11:37:32.827Z,975.95
2023-04-07T11:38:53.729Z,975.96
2023-04-07T11:39:32.670Z,975.98
2023-04-07T11:40:32.581Z,975.97
2023-04-07T11:41:32.509Z,976.00
2023-04-07T11:42:32.430Z,975.96
2023-04-07T11:43:32.346Z,975.96
2023-04-07T11:44:53.264Z,975.98
2023-04-07T11:45:32.200Z,975.94
2023-04-07T11:46:32.189Z,975.95
2023-04-07T11:47:32.042Z,975.99
2023-04-07T11:48:31.942Z,975.95
2023-04-07T11:49:31.944Z,975.97
2023-04-07T11:50:52.901Z,975.94
2023-04-07T11:51:31.714Z,975.95
2023-04-07T11:52:31.630Z,976.00
2023-04-07T11:53:31.553Z,975.96
2023-04-07T11:54:31.472Z,975.94
2023-04-07T11:55:31.401Z,975.96
2023-04-07T11:56:52.299Z,975.94
2023-04-07T11:57:31.237Z,975.93
2023-04-07T11:58:31.302Z,975.95
2023-04-07T11:59:31.080Z,975.94
2023-04-07T12:00:30.999Z,975.95
2023-04-07T12:01:30.960Z,975.94
2023-04-07T12:02:51.914Z,975.96
2023-04-07T12:03:30.867Z,975.96
2023-04-07T12:04:30.740Z,975.97
2023-04-07T12:07:58.275Z,975.92
2023-04-07T12:08:36.303Z,975.92
2023-04-07T12:09:36.468Z,975.89
2023-04-07T12:10:36.141Z,975.90
2023-04-07T12:11:36.066Z,975.88
2023-04-07T12:12:35.985Z,975.84
2023-04-07T12:13:35.904Z,975.89
2023-04-07T12:14:35.865Z,975.87
2023-04-07T12:15:35.746Z,975.89
2023-04-07T12:16:35.684Z,975.89
2023-04-07T12:17:35.627Z,975.89
2023-04-07T12:18:35.516Z,975.91
2023-04-07T12:19:35.434Z,975.92
2023-04-07T12:20:37.168Z,975.91
2023-04-07T12:21:35.268Z,975.92
2023-04-07T12:22:35.193Z,975.91
2023-04-07T12:23:35.121Z,975.87
2023-04-07T12:32:52.603Z,975.89
2023-04-07T12:33:52.404Z,975.88
2023-04-07T12:34:52.296Z,975.86
2023-04-07T12:35:52.409Z,975.89
2023-04-07T12:36:52.201Z,975.90
2023-04-07T12:37:52.346Z,975.90